Time;durP1;ratioP1;P1;durP2;ratioP2;P2;SDS_P1;SDS_P2;PMS_P1;PMS_P2;Temp;Humidity;BMP_temperature;BMP_pressure;BME280_temperature;BME280_humidity;BME280_pressure;Samples;Min_cycle;Max_cycle;Signal;HPM_P1;HPM_P2
2022/08/24 00:00:23;;;;;;;3.47;1.90;;;17.90;84.00;;;;;;5065376;28;20232;-79
2022/08/24 00:02:50;;;;;;;3.38;1.60;;;17.90;84.10;;;;;;5064499;28;20235;-78
2022/08/24 00:05:20;;;;;;;2.47;1.45;;;17.80;84.30;;;;;;5066197;28;20229;-79
2022/08/24 00:07:48;;;;;;;3.15;1.80;;;17.80;84.80;;;;;;5065906;28;20233;-79
2022/08/24 00:10:16;;;;;;;2.47;1.40;;;17.70;85.10;;;;;;5066467;28;20323;-79
2022/08/24 00:12:42;;;;;;;4.50;2.00;;;17.80;85.30;;;;;;5067023;28;20220;-79
2022/08/24 00:15:14;;;;;;;3.30;1.90;;;17.70;85.40;;;;;;5065104;28;20284;-79
2022/08/24 00:17:41;;;;;;;2.90;1.55;;;17.70;86.20;;;;;;5067393;28;20231;-79
2022/08/24 00:20:11;;;;;;;4.22;1.65;;;17.60;86.30;;;;;;5064306;28;20231;-79
2022/08/24 00:22:39;;;;;;;4.80;1.70;;;17.60;87.40;;;;;;5066817;28;20249;-79
2022/08/24 00:25:09;;;;;;;2.60;1.50;;;17.60;87.20;;;;;;5065612;28;20645;-79
2022/08/24 00:27:36;;;;;;;3.28;1.75;;;17.50;87.50;;;;;;5069267;28;20881;-80
2022/08/24 00:30:04;;;;;;;3.13;1.52;;;17.50;87.80;;;;;;5067120;28;20593;-80
2022/08/24 00:32:32;;;;;;;2.70;1.90;;;17.50;88.50;;;;;;5067063;28;20234;-80
2022/08/24 00:34:59;;;;;;;3.35;1.67;;;17.40;88.80;;;;;;5069890;28;20231;-80
2022/08/24 00:37:27;;;;;;;2.83;1.75;;;17.40;88.90;;;;;;5083930;28;21028;-80
2022/08/24 00:39:54;;;;;;;5.38;1.75;;;17.40;89.50;;;;;;5066396;28;20241;-80
2022/08/24 00:42:21;;;;;;;3.38;1.50;;;17.40;89.80;;;;;;5067853;28;20223;-80
2022/08/24 00:44:48;;;;;;;2.35;1.52;;;17.40;90.40;;;;;;5068258;28;20238;-80
2022/08/24 00:47:20;;;;;;;3.13;1.80;;;17.30;90.30;;;;;;5084324;28;20230;-80
2022/08/24 00:49:54;;;;;;;2.33;1.63;;;17.30;90.80;;;;;;5066747;28;20234;-80
2022/08/24 00:52:26;;;;;;;3.22;1.70;;;17.20;91.10;;;;;;5065753;28;20229;-80
2022/08/24 00:54:56;;;;;;;3.75;1.83;;;17.20;91.10;;;;;;5063282;28;20253;-79
2022/08/24 00:57:27;;;;;;;3.57;1.93;;;17.20;91.40;;;;;;5062404;28;20228;-79
2022/08/24 01:00:08;;;;;;;3.67;2.03;;;17.20;91.60;;;;;;5063053;28;20229;-79
2022/08/24 01:02:39;;;;;;;3.25;1.95;;;17.20;91.80;;;;;;5046196;28;20215;-79
2022/08/24 01:05:10;;;;;;;2.57;1.50;;;17.10;91.90;;;;;;5048881;28;20216;-79
2022/08/24 01:07:38;;;;;;;4.65;2.05;;;17.10;92.10;;;;;;5066822;28;20226;-79
2022/08/24 01:10:09;;;;;;;4.03;2.00;;;17.10;92.20;;;;;;5064021;28;20230;-79
2022/08/24 01:12:38;;;;;;;2.90;1.63;;;17.10;92.60;;;;;;5063818;28;20230;-79
2022/08/24 01:15:09;;;;;;;3.47;1.90;;;17.10;92.80;;;;;;5063057;28;20306;-78
2022/08/24 01:20:25;;;;;;;3.47;1.73;;;17.00;93.10;;;;;;5044568;28;20242;-80
2022/08/24 01:23:00;;;;;;;4.13;1.80;;;17.00;93.40;;;;;;5047857;28;20318;-80
2022/08/24 01:25:31;;;;;;;2.97;1.73;;;16.90;93.70;;;;;;5046932;28;20230;-80
2022/08/24 01:28:03;;;;;;;4.47;1.83;;;16.90;94.10;;;;;;5046574;28;20238;-80
2022/08/24 01:30:30;;;;;;;2.23;1.53;;;16.90;94.30;;;;;;5045866;28;20227;-80
2022/08/24 01:32:59;;;;;;;5.20;1.93;;;16.90;94.30;;;;;;5046586;28;20322;-80
2022/08/24 01:35:26;;;;;;;3.83;2.00;;;16.80;94.70;;;;;;5044829;28;20844;-80
2022/08/24 01:37:55;;;;;;;3.80;2.17;;;16.80;94.90;;;;;;5046493;28;20828;-80
2022/08/24 01:40:31;;;;;;;3.27;2.10;;;16.80;95.20;;;;;;5047884;28;20220;-80
2022/08/24 01:42:59;;;;;;;2.87;1.80;;;16.80;95.60;;;;;;5045784;28;20232;-79
2022/08/24 01:45:26;;;;;;;3.20;2.10;;;16.70;95.50;;;;;;5043541;28;20664;-81
2022/08/24 01:47:52;;;;;;;4.20;2.10;;;16.80;95.60;;;;;;5064570;28;20637;-81
2022/08/24 01:50:19;;;;;;;4.75;1.92;;;16.70;95.90;;;;;;5060226;28;20317;-81
2022/08/24 01:52:46;;;;;;;4.07;2.27;;;16.70;96.10;;;;;;5063258;28;20703;-81
2022/08/24 01:55:15;;;;;;;2.63;2.13;;;16.60;96.10;;;;;;5063570;28;20285;-80
2022/08/24 01:57:42;;;;;;;5.28;2.28;;;16.70;96.40;;;;;;5065533;28;20925;-80
2022/08/24 02:00:14;;;;;;;3.07;1.90;;;16.60;96.40;;;;;;5064144;28;20354;-80
2022/08/24 02:02:42;;;;;;;4.07;1.90;;;16.60;96.80;;;;;;5064683;28;20767;-80
2022/08/24 02:05:10;;;;;;;5.80;2.50;;;16.60;96.80;;;;;;5061633;28;20228;-81
2022/08/24 02:07:37;;;;;;;2.65;1.70;;;16.50;96.80;;;;;;5064021;28;20230;-80
2022/08/24 02:10:06;;;;;;;3.15;2.00;;;16.50;96.90;;;;;;5063373;28;20231;-81
2022/08/24 02:12:33;;;;;;;4.13;2.20;;;16.40;97.20;;;;;;5063958;28;20302;-80
2022/08/24 02:15:01;;;;;;;3.50;2.20;;;16.40;97.30;;;;;;5062053;28;20241;-80
2022/08/24 02:17:30;;;;;;;4.27;2.07;;;16.40;97.50;;;;;;5059048;28;20227;-81
2022/08/24 02:19:56;;;;;;;4.63;2.20;;;16.40;97.80;;;;;;5042104;28;20769;-80
2022/08/24 02:22:23;;;;;;;3.20;2.20;;;16.40;97.80;;;;;;5042713;28;20237;-80
2022/08/24 02:24:50;;;;;;;2.97;2.17;;;16.30;97.90;;;;;;5042752;28;20239;-80
2022/08/24 02:27:17;;;;;;;3.70;2.27;;;16.30;98.10;;;;;;5042758;28;20222;-80
2022/08/24 02:29:44;;;;;;;2.87;2.10;;;16.30;98.10;;;;;;5052592;28;20566;-80
2022/08/24 02:32:12;;;;;;;3.53;2.10;;;16.30;98.30;;;;;;5062277;28;20314;-80
2022/08/24 02:34:41;;;;;;;3.30;2.20;;;16.20;98.40;;;;;;5044291;28;20250;-80
2022/08/24 02:37:08;;;;;;;3.60;2.40;;;16.20;98.60;;;;;;5043465;28;20321;-80
2022/08/24 02:39:35;;;;;;;2.73;2.23;;;16.20;98.60;;;;;;5042001;28;20335;-80
2022/08/24 02:42:06;;;;;;;3.33;2.13;;;16.20;98.90;;;;;;5041419;28;20232;-80
2022/08/24 02:44:33;;;;;;;3.67;2.20;;;16.10;98.90;;;;;;5041780;28;20231;-80
2022/08/24 02:47:00;;;;;;;3.80;2.10;;;16.10;99.10;;;;;;5043041;28;20227;-81
2022/08/24 02:49:27;;;;;;;8.73;2.63;;;16.10;99.10;;;;;;5042364;28;20243;-80
2022/08/24 02:51:55;;;;;;;2.40;2.20;;;16.10;99.10;;;;;;5043619;28;20698;-81
2022/08/24 02:54:22;;;;;;;4.73;2.20;;;16.00;99.30;;;;;;5047454;28;20840;-81
2022/08/24 02:56:51;;;;;;;4.20;2.17;;;16.00;99.40;;;;;;5047961;28;20250;-80
2022/08/24 02:59:18;;;;;;;4.43;2.30;;;16.00;99.60;;;;;;5044957;28;20228;-80
2022/08/24 03:01:47;;;;;;;4.57;2.20;;;16.00;99.60;;;;;;5046281;28;20277;-79
2022/08/24 03:04:14;;;;;;;3.97;2.53;;;16.00;99.60;;;;;;5044359;28;20302;-79
2022/08/24 03:06:43;;;;;;;3.70;2.33;;;15.90;99.70;;;;;;5073279;23;20212;-95
2022/08/24 03:09:12;;;;;;;3.93;2.50;;;15.90;99.70;;;;;;5069389;28;20448;-95
2022/08/24 03:11:40;;;;;;;4.53;2.10;;;15.80;99.90;;;;;;5084046;28;20218;-94
2022/08/24 03:14:07;;;;;;;2.60;2.23;;;15.80;99.90;;;;;;5066927;28;20255;-95
2022/08/24 03:16:34;;;;;;;5.03;2.67;;;15.80;99.90;;;;;;5076548;28;20215;-95
2022/08/24 03:19:01;;;;;;;4.60;2.90;;;15.80;99.90;;;;;;5066168;28;20271;-94
2022/08/24 03:21:32;;;;;;;5.67;2.20;;;15.80;99.90;;;;;;5064450;28;20218;-94
2022/08/24 03:23:59;;;;;;;5.47;2.80;;;15.70;99.90;;;;;;5071637;28;20207;-95
2022/08/24 03:26:27;;;;;;;2.73;2.40;;;15.70;99.90;;;;;;5068878;28;20215;-96
2022/08/24 03:28:54;;;;;;;4.37;2.40;;;15.70;99.90;;;;;;5068289;28;20214;-94
2022/08/24 03:31:21;;;;;;;4.77;2.43;;;15.70;99.90;;;;;;5065827;28;20216;-95
2022/08/24 03:33:50;;;;;;;5.67;2.63;;;15.70;99.90;;;;;;5094071;28;20204;-94
2022/08/24 03:36:17;;;;;;;7.67;3.20;;;15.70;99.90;;;;;;5081745;28;20246;-93
2022/08/24 03:38:44;;;;;;;3.80;2.40;;;15.60;99.90;;;;;;5088493;28;20222;-93
2022/08/24 03:41:11;;;;;;;5.73;2.30;;;15.60;99.90;;;;;;5085465;28;20218;-94
2022/08/24 03:43:47;;;;;;;4.57;2.60;;;15.50;99.90;;;;;;5086539;28;20221;-94
2022/08/24 03:46:21;;;;;;;4.20;2.50;;;15.50;99.90;;;;;;5101044;28;20331;-94
2022/08/24 03:48:49;;;;;;;6.40;2.63;;;15.50;99.90;;;;;;5083121;28;20237;-94
2022/08/24 03:51:22;;;;;;;4.27;2.60;;;15.50;99.90;;;;;;5075080;28;20223;-94
2022/08/24 03:53:50;;;;;;;4.40;2.60;;;15.50;99.90;;;;;;5068649;28;20292;-93
2022/08/24 03:56:17;;;;;;;3.47;2.50;;;15.40;99.90;;;;;;5082719;28;20219;-94
2022/08/24 03:58:47;;;;;;;5.73;2.63;;;15.40;99.90;;;;;;5068087;28;20226;-93
2022/08/24 04:01:15;;;;;;;4.00;2.27;;;15.40;99.90;;;;;;5059901;28;20528;-94
2022/08/24 04:03:44;;;;;;;4.10;2.30;;;15.40;99.90;;;;;;5077203;28;20208;-93
2022/08/24 04:06:13;;;;;;;4.27;2.50;;;15.40;99.90;;;;;;5074659;28;20214;-94
2022/08/24 04:08:40;;;;;;;4.20;2.43;;;15.40;99.90;;;;;;5087917;28;20230;-94
2022/08/24 04:11:11;;;;;;;4.50;2.47;;;15.30;99.90;;;;;;5085931;28;20199;-96
2022/08/24 04:13:38;;;;;;;5.13;2.73;;;15.30;99.90;;;;;;5077567;28;20206;-95
2022/08/24 04:16:08;;;;;;;6.07;2.60;;;15.30;99.90;;;;;;5087885;28;20211;-95
2022/08/24 04:18:35;;;;;;;4.37;2.80;;;15.30;99.90;;;;;;5086408;28;20226;-95
2022/08/24 04:21:02;;;;;;;5.87;2.90;;;15.30;99.90;;;;;;5086536;28;20207;-93
2022/08/24 04:23:29;;;;;;;4.40;2.83;;;15.20;99.90;;;;;;5081579;28;20211;-94
2022/08/24 04:25:55;;;;;;;4.87;2.67;;;15.30;99.90;;;;;;5073956;28;20218;-95
2022/08/24 04:28:22;;;;;;;5.37;2.83;;;15.30;99.90;;;;;;5083384;28;20226;-94
2022/08/24 04:30:50;;;;;;;4.60;2.77;;;15.30;99.90;;;;;;5064743;28;20220;-94
2022/08/24 04:33:27;;;;;;;5.07;3.03;;;15.20;99.90;;;;;;5086758;28;20239;-95
2022/08/24 04:35:55;;;;;;;5.70;3.00;;;15.20;99.90;;;;;;5083690;28;20227;-95
2022/08/24 04:38:25;;;;;;;7.43;3.40;;;15.30;99.90;;;;;;5091421;28;20238;-94
2022/08/24 04:41:13;;;;;;;4.37;2.90;;;15.20;99.90;;;;;;5074697;28;20299;-94
2022/08/24 04:43:41;;;;;;;5.03;2.57;;;15.30;99.90;;;;;;5103013;28;20230;-95
2022/08/24 04:46:09;;;;;;;6.70;3.93;;;15.30;99.90;;;;;;5086756;28;20207;-96
2022/08/24 04:48:37;;;;;;;7.70;3.67;;;15.30;99.90;;;;;;5082193;28;20224;-94
2022/08/24 04:51:05;;;;;;;4.73;2.87;;;15.30;99.90;;;;;;5070034;28;20219;-95
2022/08/24 04:53:37;;;;;;;8.73;3.40;;;15.30;99.90;;;;;;5082614;28;20226;-92
2022/08/24 04:56:08;;;;;;;7.13;2.83;;;15.30;99.90;;;;;;5082292;28;20237;-94
2022/08/24 04:58:35;;;;;;;3.90;3.10;;;15.30;99.90;;;;;;5077651;28;20210;-94
2022/08/24 05:01:07;;;;;;;3.67;3.03;;;15.40;99.90;;;;;;5087344;28;20220;-94
2022/08/24 05:03:34;;;;;;;7.60;3.33;;;15.40;99.90;;;;;;5099030;28;20206;-94
2022/08/24 05:06:02;;;;;;;4.90;2.83;;;15.40;99.90;;;;;;5101857;28;20196;-93
2022/08/24 05:08:30;;;;;;;5.63;3.27;;;15.50;99.90;;;;;;5079895;28;20214;-94
2022/08/24 05:10:57;;;;;;;4.87;3.57;;;15.40;99.90;;;;;;5077161;28;20210;-94
2022/08/24 05:13:24;;;;;;;5.43;3.23;;;15.50;99.90;;;;;;5064925;28;20267;-94
2022/08/24 05:15:51;;;;;;;6.60;3.30;;;15.60;99.90;;;;;;5067129;28;20267;-93
2022/08/24 05:18:18;;;;;;;6.60;3.50;;;15.60;99.90;;;;;;5077391;28;20203;-94
2022/08/24 05:20:46;;;;;;;6.60;3.53;;;15.60;99.90;;;;;;5079615;28;20250;-94
2022/08/24 05:23:18;;;;;;;6.43;3.87;;;15.70;99.90;;;;;;5082902;28;20199;-93
2022/08/24 05:25:45;;;;;;;7.40;3.43;;;15.80;99.90;;;;;;5072861;28;20228;-94
2022/08/24 05:28:12;;;;;;;4.77;3.20;;;15.70;99.90;;;;;;5075907;28;20224;-94
2022/08/24 05:30:39;;;;;;;6.40;3.97;;;15.80;99.90;;;;;;5068396;28;20235;-94
2022/08/24 05:33:08;;;;;;;4.77;3.63;;;15.80;99.90;;;;;;5079345;28;20489;-93
2022/08/24 05:35:37;;;;;;;4.47;3.63;;;15.90;99.90;;;;;;5072437;28;20214;-94
2022/08/24 05:38:04;;;;;;;8.37;4.10;;;16.00;99.90;;;;;;5068406;28;20268;-94
2022/08/24 05:40:38;;;;;;;4.67;3.33;;;16.00;99.90;;;;;;5068301;28;20212;-95
2022/08/24 05:43:05;;;;;;;4.83;3.77;;;16.10;99.90;;;;;;5068805;28;20214;-93
2022/08/24 05:45:32;;;;;;;8.03;4.40;;;16.10;99.90;;;;;;5081517;28;20223;-94
2022/08/24 05:47:59;;;;;;;4.53;3.50;;;16.30;99.90;;;;;;5093963;28;20320;-94
2022/08/24 05:50:53;;;;;;;4.40;3.00;;;16.30;99.90;;;;;;5038661;28;20235;-93
2022/08/24 05:53:20;;;;;;;8.83;3.70;;;16.30;99.90;;;;;;5060630;28;20216;-93
2022/08/24 05:55:49;;;;;;;7.20;3.90;;;16.50;99.90;;;;;;5077124;28;20230;-93
2022/08/24 05:58:17;;;;;;;7.53;3.73;;;16.50;99.90;;;;;;5056782;28;20216;-93
2022/08/24 06:00:45;;;;;;;8.20;3.43;;;16.50;99.90;;;;;;5052334;28;20226;-92
2022/08/24 06:03:12;;;;;;;7.05;3.75;;;16.60;99.90;;;;;;5057079;28;20230;-93
2022/08/24 06:05:40;;;;;;;7.67;3.33;;;16.70;99.90;;;;;;5060467;28;20292;-94
2022/08/24 06:08:07;;;;;;;7.13;3.97;;;16.80;99.90;;;;;;5059129;28;20223;-93
2022/08/24 06:10:40;;;;;;;5.40;3.47;;;16.80;99.90;;;;;;5072946;28;20220;-94
2022/08/24 06:13:10;;;;;;;5.77;3.43;;;16.90;99.90;;;;;;5051681;28;20226;-93
2022/08/24 06:15:38;;;;;;;6.60;3.43;;;17.00;99.90;;;;;;5067109;28;20219;-93
2022/08/24 06:18:06;;;;;;;6.80;3.57;;;17.00;99.90;;;;;;5084956;28;20261;-93
2022/08/24 06:20:39;;;;;;;6.70;3.40;;;17.10;99.90;;;;;;5073798;28;20211;-93
2022/08/24 06:23:07;;;;;;;4.57;3.20;;;17.30;99.90;;;;;;5072622;28;20219;-93
2022/08/24 06:28:26;;;;;;;4.88;2.95;;;17.30;99.90;;;;;;5060639;28;20322;-94
2022/08/24 06:31:01;;;;;;;4.68;3.15;;;17.40;99.90;;;;;;5064641;28;20235;-94
2022/08/24 06:33:29;;;;;;;6.13;3.33;;;17.50;99.90;;;;;;5061039;28;20330;-93
2022/08/24 06:35:58;;;;;;;7.97;3.40;;;17.60;99.90;;;;;;5062090;28;20600;-94
2022/08/24 06:38:24;;;;;;;10.38;3.45;;;17.70;99.90;;;;;;5075454;28;20224;-93
2022/08/24 06:40:53;;;;;;;6.40;3.30;;;17.80;99.90;;;;;;5055523;28;20259;-94
2022/08/24 06:43:20;;;;;;;7.93;3.50;;;17.80;99.90;;;;;;5055065;28;20234;-93
2022/08/24 06:45:53;;;;;;;6.00;3.28;;;17.90;99.90;;;;;;5057570;28;20216;-93
2022/08/24 06:48:24;;;;;;;5.05;3.25;;;18.00;99.90;;;;;;5057539;28;20220;-93
2022/08/24 06:50:52;;;;;;;7.30;3.20;;;18.10;99.90;;;;;;5049152;28;20228;-93
2022/08/24 06:53:19;;;;;;;5.88;3.17;;;18.20;99.90;;;;;;5067401;28;20223;-93
2022/08/24 06:55:49;;;;;;;4.40;2.92;;;18.20;99.90;;;;;;5068092;28;20226;-93
2022/08/24 06:58:17;;;;;;;5.05;3.28;;;18.30;99.90;;;;;;5088354;28;20596;-93
2022/08/24 07:00:44;;;;;;;4.07;2.72;;;18.40;99.90;;;;;;5082726;28;20215;-93
2022/08/24 07:03:12;;;;;;;6.60;2.78;;;18.50;99.90;;;;;;5064608;28;20344;-95
2022/08/24 07:05:51;;;;;;;6.45;2.70;;;18.50;99.90;;;;;;5083506;28;20234;-93
2022/08/24 07:08:38;;;;;;;3.92;2.70;;;18.60;99.90;;;;;;5073543;28;20234;-93
2022/08/24 07:11:05;;;;;;;7.68;2.92;;;18.60;99.90;;;;;;5066393;28;20242;-93
2022/08/24 07:13:33;;;;;;;6.85;2.60;;;18.70;99.90;;;;;;5061067;28;20219;-92
2022/08/24 07:16:00;;;;;;;6.35;3.50;;;18.80;99.90;;;;;;5065711;28;20267;-93
2022/08/24 07:18:28;;;;;;;5.70;3.03;;;18.80;99.90;;;;;;5062013;28;20236;-93
2022/08/24 07:20:56;;;;;;;18.58;5.05;;;18.90;99.90;;;;;;5057095;28;20734;-93
2022/08/24 07:23:35;;;;;;;9.43;3.63;;;19.00;99.90;;;;;;5072022;28;20223;-93
2022/08/24 07:26:06;;;;;;;5.97;3.28;;;19.10;99.90;;;;;;5077470;28;20224;-94
2022/08/24 07:28:36;;;;;;;6.13;3.30;;;19.20;99.90;;;;;;5081923;28;20267;-92
2022/08/24 07:31:03;;;;;;;5.70;2.70;;;19.30;99.90;;;;;;5080050;28;20223;-93
2022/08/24 07:33:37;;;;;;;5.43;2.70;;;19.40;99.90;;;;;;5079556;28;20251;-92
2022/08/24 07:36:05;;;;;;;4.60;2.33;;;19.50;99.90;;;;;;5084073;28;20230;-92
2022/08/24 07:38:32;;;;;;;4.70;2.40;;;19.60;99.90;;;;;;5083088;28;20212;-91
2022/08/24 07:41:01;;;;;;;5.75;2.50;;;19.80;99.90;;;;;;5081125;28;20208;-92
2022/08/24 07:43:28;;;;;;;4.05;2.05;;;20.10;99.90;;;;;;5077114;28;20246;-91
2022/08/24 07:45:55;;;;;;;5.55;2.13;;;20.60;99.90;;;;;;5080025;28;20215;-93
2022/08/24 07:48:21;;;;;;;5.15;2.30;;;21.20;99.90;;;;;;5082816;28;20212;-91
2022/08/24 07:50:52;;;;;;;6.55;2.33;;;21.90;99.90;;;;;;5081691;28;20215;-91
2022/08/24 07:53:19;;;;;;;4.38;2.08;;;22.70;99.90;;;;;;5083128;28;20219;-91
2022/08/24 07:55:53;;;;;;;4.55;2.40;;;23.60;99.90;;;;;;5085066;28;20238;-94
2022/08/24 07:58:20;;;;;;;3.83;2.00;;;24.40;99.90;;;;;;5083778;28;20477;-92
2022/08/24 08:00:47;;;;;;;6.90;2.30;;;25.10;99.90;;;;;;5079702;28;20251;-93
2022/08/24 08:03:15;;;;;;;4.18;2.00;;;25.90;98.90;;;;;;5097777;28;20230;-92
2022/08/24 08:05:42;;;;;;;4.03;2.00;;;26.60;97.80;;;;;;5099275;28;20204;-91
2022/08/24 08:08:11;;;;;;;3.90;1.90;;;27.20;96.50;;;;;;5077730;28;20298;-93
2022/08/24 08:10:39;;;;;;;4.40;2.20;;;27.70;95.70;;;;;;5079958;28;20243;-93
2022/08/24 08:13:07;;;;;;;3.33;2.08;;;28.10;94.60;;;;;;5098130;28;20282;-93
2022/08/24 08:15:34;;;;;;;6.18;2.00;;;28.40;93.60;;;;;;5086366;28;20448;-93
2022/08/24 08:18:07;;;;;;;3.70;2.08;;;28.80;93.60;;;;;;5084704;28;20223;-93
2022/08/24 08:20:38;;;;;;;4.30;2.08;;;29.10;93.00;;;;;;5085583;28;20303;-93
2022/08/24 08:26:16;;;;;;;4.07;2.03;;;29.70;91.60;;;;;;5068359;28;20784;-94
2022/08/24 08:28:54;;;;;;;3.95;2.00;;;30.10;90.70;;;;;;5066722;28;20212;-91
2022/08/24 08:31:21;;;;;;;4.88;1.90;;;30.40;90.10;;;;;;5070084;28;20282;-92
2022/08/24 08:33:48;;;;;;;3.38;2.03;;;30.50;86.90;;;;;;5070217;28;20286;-92
2022/08/24 08:36:16;;;;;;;5.25;2.20;;;30.60;86.40;;;;;;5095890;28;20212;-94
2022/08/24 08:38:53;;;;;;;5.07;2.20;;;30.70;84.70;;;;;;5086827;28;20590;-94
2022/08/24 08:42:16;;;;;;;4.95;2.08;;;30.60;84.30;;;;;;5081889;28;20219;-96
2022/08/24 08:45:00;;;;;;;6.30;2.05;;;30.60;83.50;;;;;;5083230;22;20239;-80
2022/08/24 08:47:50;;;;;;;4.82;2.17;;;30.70;83.70;;;;;;5044287;28;20223;-81
2022/08/24 08:50:26;;;;;;;7.13;2.30;;;30.80;83.80;;;;;;5037768;28;20218;-81
2022/08/24 08:53:20;;;;;;;3.60;1.95;;;30.90;80.70;;;;;;5050238;28;20228;-81
2022/08/24 08:56:02;;;;;;;6.03;2.40;;;31.00;81.80;;;;;;5045149;28;20220;-82
2022/08/24 08:59:00;;;;;;;4.30;1.70;;;31.20;79.60;;;;;;5037354;28;20234;-83
2022/08/24 09:01:46;;;;;;;3.95;1.70;;;31.40;81.50;;;;;;5039600;28;20915;-81
2022/08/24 09:04:55;;;;;;;3.10;2.13;;;31.60;79.70;;;;;;5043318;28;20231;-83
2022/08/24 09:07:35;;;;;;;3.75;2.10;;;31.90;79.40;;;;;;5020707;28;20227;-81
2022/08/24 09:10:35;;;;;;;4.88;2.10;;;32.10;76.10;;;;;;5034213;28;20213;-77
2022/08/24 09:13:15;;;;;;;3.47;1.90;;;32.40;77.50;;;;;;5052176;28;20395;-76
2022/08/24 09:15:58;;;;;;;4.18;2.25;;;32.70;76.10;;;;;;5037182;28;20235;-78
2022/08/24 09:18:40;;;;;;;2.78;2.00;;;32.90;75.60;;;;;;5040646;28;20250;-78
2022/08/24 09:21:22;;;;;;;4.55;1.95;;;33.20;74.80;;;;;;5039322;28;20868;-77
2022/08/24 09:24:00;;;;;;;3.30;1.95;;;33.50;74.00;;;;;;5056357;28;20219;-79
2022/08/24 09:26:31;;;;;;;4.60;2.00;;;33.80;73.30;;;;;;5032494;28;20232;-78
2022/08/24 09:29:09;;;;;;;5.57;1.90;;;34.10;71.50;;;;;;5035148;28;20291;-78
2022/08/24 09:31:55;;;;;;;3.05;1.90;;;34.30;70.70;;;;;;5036917;28;20824;-78
2022/08/24 09:34:34;;;;;;;4.35;1.85;;;34.50;68.60;;;;;;5037388;28;20211;-78
2022/08/24 09:37:26;;;;;;;3.50;1.95;;;34.70;68.00;;;;;;5057534;28;20750;-78
2022/08/24 09:40:02;;;;;;;3.78;1.70;;;34.90;68.30;;;;;;5033615;28;20228;-79
2022/08/24 09:43:19;;;;;;;5.38;2.40;;;35.00;67.10;;;;;;5051943;28;20295;-79
2022/08/24 09:46:12;;;;;;;3.33;1.90;;;35.20;67.30;;;;;;5037951;28;20220;-79
2022/08/24 09:49:06;;;;;;;3.90;2.17;;;35.40;66.10;;;;;;5039040;28;20343;-78
2022/08/24 09:52:03;;;;;;;5.28;2.03;;;35.60;63.60;;;;;;5039070;28;20224;-79
2022/08/24 09:54:51;;;;;;;3.28;2.20;;;35.70;63.20;;;;;;5038608;28;20224;-78
2022/08/24 09:57:43;;;;;;;3.88;2.40;;;35.80;61.50;;;;;;5036215;28;20224;-79
2022/08/24 10:00:14;;;;;;;3.78;1.92;;;35.70;60.50;;;;;;5043642;28;20677;-79
2022/08/24 10:03:10;;;;;;;4.63;2.20;;;35.60;60.50;;;;;;5043497;28;20310;-79
2022/08/24 10:06:07;;;;;;;4.78;2.10;;;35.50;61.90;;;;;;5024462;28;20259;-79
2022/08/24 10:09:10;;;;;;;5.40;2.05;;;35.50;60.20;;;;;;5039050;28;20227;-79
2022/08/24 10:11:47;;;;;;;4.20;1.95;;;35.50;59.60;;;;;;5041913;28;20820;-79
2022/08/24 10:14:29;;;;;;;3.33;1.77;;;35.60;59.30;;;;;;5043815;28;20219;-79
2022/08/24 10:17:09;;;;;;;3.60;1.80;;;35.60;58.00;;;;;;5043678;28;20230;-79
2022/08/24 10:19:53;;;;;;;4.15;1.63;;;35.70;58.20;;;;;;5041345;28;20222;-79
2022/08/24 10:22:36;;;;;;;4.82;1.65;;;35.90;57.70;;;;;;5043531;28;20232;-79
2022/08/24 10:25:19;;;;;;;2.80;1.55;;;36.20;57.00;;;;;;5041834;28;20220;-79
2022/08/24 10:27:53;;;;;;;2.33;1.70;;;36.50;56.50;;;;;;5047197;28;20844;-79
2022/08/24 10:30:57;;;;;;;3.25;1.75;;;36.80;56.00;;;;;;5047743;28;20224;-79
2022/08/24 10:33:27;;;;;;;6.45;2.03;;;36.90;56.00;;;;;;5043986;28;20231;-80
2022/08/24 10:36:15;;;;;;;3.10;1.88;;;37.10;55.00;;;;;;5045040;28;20247;-79
2022/08/24 10:42:07;;;;;;;6.07;1.90;;;37.20;52.80;;;;;;5039575;28;20854;-79
2022/08/24 10:44:48;;;;;;;3.88;2.20;;;37.30;54.50;;;;;;5042954;28;20391;-79
2022/08/24 10:47:21;;;;;;;3.92;1.80;;;37.30;53.60;;;;;;5045127;28;20323;-79
2022/08/24 10:50:15;;;;;;;3.95;1.50;;;37.30;51.80;;;;;;5051569;28;20236;-79
2022/08/24 10:53:04;;;;;;;4.65;1.90;;;37.30;51.70;;;;;;5035985;28;20292;-79
2022/08/24 10:55:34;;;;;;;3.55;2.03;;;37.30;51.50;;;;;;5047384;28;20228;-79
2022/08/24 10:58:29;;;;;;;1.85;1.50;;;37.40;51.60;;;;;;5041185;28;20714;-79
2022/08/24 11:01:11;;;;;;;2.53;1.60;;;37.40;51.60;;;;;;5043858;28;20684;-79
2022/08/24 11:03:48;;;;;;;2.65;1.70;;;37.60;50.70;;;;;;5043528;28;20590;-79
2022/08/24 11:06:17;;;;;;;4.10;1.77;;;37.60;49.00;;;;;;5045808;28;20242;-79
2022/08/24 11:08:53;;;;;;;3.05;1.60;;;37.70;49.40;;;;;;5049177;28;20220;-79
2022/08/24 11:11:28;;;;;;;2.88;1.67;;;37.80;49.20;;;;;;5052476;28;20223;-79
2022/08/24 11:13:59;;;;;;;2.45;1.80;;;38.00;49.10;;;;;;5049503;28;20216;-80
2022/08/24 11:16:29;;;;;;;2.97;1.73;;;38.10;49.30;;;;;;5048088;28;20235;-79
2022/08/24 11:18:58;;;;;;;3.10;1.88;;;38.20;48.80;;;;;;5057033;28;20273;-79
2022/08/24 11:21:39;;;;;;;2.28;1.65;;;38.40;48.60;;;;;;5048711;28;20258;-79
2022/08/24 11:24:10;;;;;;;5.20;2.10;;;38.40;48.90;;;;;;5061218;28;20304;-79
2022/08/24 11:26:51;;;;;;;3.10;1.70;;;38.50;48.00;;;;;;5040602;28;20297;-79
2022/08/24 11:29:18;;;;;;;4.03;1.67;;;38.50;47.30;;;;;;5042617;28;20230;-79
2022/08/24 11:31:49;;;;;;;2.40;1.63;;;38.50;46.40;;;;;;5038963;28;20404;-79
2022/08/24 11:34:29;;;;;;;3.72;1.70;;;38.30;46.70;;;;;;5040562;28;20586;-80
2022/08/24 11:36:56;;;;;;;3.42;1.60;;;38.10;46.30;;;;;;5041804;28;20278;-78
2022/08/24 11:39:27;;;;;;;2.35;1.65;;;37.80;45.70;;;;;;5048386;28;20220;-79
2022/08/24 11:42:00;;;;;;;2.03;1.50;;;37.60;45.30;;;;;;5041702;28;20278;-80
2022/08/24 11:44:38;;;;;;;4.38;1.60;;;37.30;45.60;;;;;;5040481;28;20246;-80
2022/08/24 11:47:33;;;;;;;2.63;1.85;;;37.10;46.50;;;;;;5041392;28;20349;-80
2022/08/24 11:50:08;;;;;;;3.25;1.80;;;36.90;46.10;;;;;;5046355;28;20220;-80
2022/08/24 11:52:47;;;;;;;2.83;1.67;;;36.80;46.80;;;;;;5038507;28;20231;-80
2022/08/24 11:55:21;;;;;;;3.35;1.80;;;36.80;47.20;;;;;;5036206;28;20875;-80
2022/08/24 11:57:56;;;;;;;3.58;1.67;;;36.80;46.20;;;;;;5039625;28;20236;-80
2022/08/24 12:00:25;;;;;;;2.17;1.67;;;36.70;46.10;;;;;;5038612;28;20227;-79
2022/08/24 12:03:02;;;;;;;3.25;1.75;;;36.50;46.30;;;;;;5036176;28;20246;-80
2022/08/24 12:05:39;;;;;;;2.63;1.35;;;36.40;47.00;;;;;;5050696;28;20227;-80
2022/08/24 12:08:13;;;;;;;3.08;1.60;;;36.20;47.60;;;;;;5034543;28;20238;-80
2022/08/24 12:10:49;;;;;;;4.05;1.50;;;36.20;47.10;;;;;;5038687;28;20625;-80
2022/08/24 12:13:31;;;;;;;2.05;1.60;;;36.30;46.70;;;;;;5037293;28;20240;-80
2022/08/24 12:16:07;;;;;;;3.95;2.10;;;36.30;46.90;;;;;;5036948;28;20231;-80
2022/08/24 12:18:50;;;;;;;4.78;1.88;;;36.40;46.90;;;;;;5037752;28;20223;-80
2022/08/24 12:21:21;;;;;;;4.75;1.90;;;36.40;47.00;;;;;;5044907;28;20301;-80
2022/08/24 12:23:52;;;;;;;2.65;1.77;;;36.50;46.70;;;;;;5054951;28;20226;-80
2022/08/24 12:26:25;;;;;;;2.72;1.70;;;36.60;47.30;;;;;;5040354;28;20305;-80
2022/08/24 12:29:00;;;;;;;4.88;1.83;;;36.60;47.30;;;;;;5046235;28;20320;-80
2022/08/24 12:31:39;;;;;;;3.30;1.45;;;36.60;47.10;;;;;;5039406;28;20318;-80
2022/08/24 12:34:13;;;;;;;3.35;1.67;;;36.70;47.30;;;;;;5033108;28;20219;-80
2022/08/24 12:36:50;;;;;;;3.70;1.73;;;36.80;46.70;;;;;;5036319;28;20239;-80
2022/08/24 12:39:21;;;;;;;5.82;2.15;;;36.80;46.20;;;;;;5039104;28;20247;-80
2022/08/24 12:42:05;;;;;;;3.47;1.80;;;36.80;46.40;;;;;;5039325;28;20621;-80
2022/08/24 12:44:40;;;;;;;2.15;1.60;;;36.70;46.20;;;;;;5033928;28;20223;-80
2022/08/24 12:47:08;;;;;;;3.70;1.80;;;36.70;45.90;;;;;;5038010;28;20335;-80
2022/08/24 12:49:43;;;;;;;3.53;1.77;;;36.70;46.60;;;;;;5042206;28;20802;-80
2022/08/24 12:52:41;;;;;;;2.80;1.80;;;36.70;46.40;;;;;;5036629;28;20223;-80
2022/08/24 12:55:22;;;;;;;3.45;1.73;;;36.70;46.70;;;;;;5023399;28;20790;-80
2022/08/24 12:57:59;;;;;;;4.55;1.75;;;36.60;46.50;;;;;;5042057;28;20739;-80
2022/08/24 13:00:33;;;;;;;5.05;1.90;;;36.50;46.70;;;;;;5044218;28;20242;-80
2022/08/24 13:03:04;;;;;;;2.60;1.30;;;36.30;46.60;;;;;;5033510;28;20211;-80
2022/08/24 13:05:40;;;;;;;4.55;1.85;;;36.30;46.50;;;;;;5038080;28;20684;-80
2022/08/24 13:08:14;;;;;;;4.78;1.90;;;36.30;46.70;;;;;;5039301;28;20227;-80
2022/08/24 13:10:52;;;;;;;1.98;1.70;;;36.40;46.70;;;;;;5037231;28;20893;-79
2022/08/24 13:13:41;;;;;;;1.67;1.35;;;36.50;46.60;;;;;;5042340;28;20229;-80
2022/08/24 13:16:10;;;;;;;3.17;1.80;;;36.70;46.70;;;;;;5041517;28;20303;-80
2022/08/24 13:19:04;;;;;;;3.85;1.65;;;36.80;45.50;;;;;;5040036;28;20216;-79
2022/08/24 13:21:44;;;;;;;2.67;1.65;;;36.90;44.80;;;;;;5040697;28;20232;-80
2022/08/24 13:24:49;;;;;;;2.90;1.30;;;36.90;44.70;;;;;;5038486;28;20274;-80
2022/08/24 13:28:01;;;;;;;4.85;1.98;;;36.70;44.70;;;;;;5032435;28;20224;-80
2022/08/24 13:30:34;;;;;;;1.80;1.55;;;36.50;44.70;;;;;;5033645;28;20857;-80